BAW9226 HEAX-LGAV
Flight info
| Callsign | BAW9226 |
|---|---|
| Flight time | 1h 27m |
| Altitude | 40000 |
| Route | NOZ1B NOZ L551 ANTAR DCT RIPLI UL995 VARIX VARIX1W |
| Aircraft | B772/H-SDE1E3FGHIJ3J5J6M1M2P2RWXYZ/LB1D1 |
Departure
| Time | 2026-04-20 03:38 |
|---|---|
| Airport | Alexandria International Airport (HEAX) |
Arrival
| Time | 2026-04-20 05:05 |
|---|---|
| Airport | Athens Eleftherios Venizelos International Airport (LGAV) |
| Time | Latitude | Longitude | Altitude | Speed | Heading |
|---|---|---|---|---|---|
| 2026-04-20 03:11 | 30.93281 | 29.69449 | 172 ft | 0 kts | 53° |
| 2026-04-20 03:27 | 30.93277 | 29.69443 | 172 ft | 4 kts | 54° |
| 2026-04-20 03:27 | 30.93261 | 29.69417 | 172 ft | 4 kts | 59° |
| 2026-04-20 03:27 | 30.93249 | 29.69390 | 172 ft | 4 kts | 69° |
| 2026-04-20 03:27 | 30.93243 | 29.69370 | 172 ft | 0 kts | 77° |
| 2026-04-20 03:30 | 30.93241 | 29.69386 | 172 ft | 4 kts | 105° |
| 2026-04-20 03:30 | 30.93202 | 29.69406 | 172 ft | 10 kts | 162° |
| 2026-04-20 03:30 | 30.93126 | 29.69458 | 171 ft | 15 kts | 143° |
| 2026-04-20 03:30 | 30.93040 | 29.69534 | 171 ft | 16 kts | 143° |
| 2026-04-20 03:31 | 30.92946 | 29.69616 | 170 ft | 13 kts | 146° |
| 2026-04-20 03:31 | 30.92873 | 29.69595 | 170 ft | 12 kts | 224° |
| 2026-04-20 03:31 | 30.92817 | 29.69513 | 169 ft | 13 kts | 232° |
| 2026-04-20 03:31 | 30.92758 | 29.69423 | 169 ft | 15 kts | 233° |
| 2026-04-20 03:32 | 30.92694 | 29.69325 | 169 ft | 16 kts | 233° |
| 2026-04-20 03:32 | 30.92627 | 29.69221 | 168 ft | 17 kts | 233° |
| 2026-04-20 03:32 | 30.92555 | 29.69111 | 168 ft | 18 kts | 233° |
| 2026-04-20 03:32 | 30.92493 | 29.69026 | 167 ft | 12 kts | 209° |
| 2026-04-20 03:33 | 30.92414 | 29.69056 | 167 ft | 14 kts | 144° |
| 2026-04-20 03:33 | 30.92320 | 29.69137 | 167 ft | 19 kts | 143° |
| 2026-04-20 03:33 | 30.92201 | 29.69241 | 168 ft | 24 kts | 143° |
| 2026-04-20 03:33 | 30.92057 | 29.69368 | 166 ft | 28 kts | 143° |
| 2026-04-20 03:34 | 30.91897 | 29.69509 | 165 ft | 29 kts | 143° |
| 2026-04-20 03:34 | 30.91736 | 29.69650 | 165 ft | 29 kts | 143° |
| 2026-04-20 03:34 | 30.91576 | 29.69789 | 165 ft | 29 kts | 143° |
| 2026-04-20 03:34 | 30.91415 | 29.69929 | 166 ft | 29 kts | 143° |
| 2026-04-20 03:35 | 30.91256 | 29.70073 | 166 ft | 29 kts | 142° |
| 2026-04-20 03:35 | 30.91103 | 29.70197 | 163 ft | 24 kts | 156° |
| 2026-04-20 03:35 | 30.90939 | 29.70236 | 161 ft | 24 kts | 175° |
| 2026-04-20 03:35 | 30.90771 | 29.70253 | 149 ft | 24 kts | 175° |
| 2026-04-20 03:36 | 30.90620 | 29.70329 | 145 ft | 24 kts | 143° |
| 2026-04-20 03:36 | 30.90516 | 29.70426 | 144 ft | 16 kts | 127° |
| 2026-04-20 03:36 | 30.90531 | 29.70542 | 156 ft | 16 kts | 55° |
| 2026-04-20 03:36 | 30.90584 | 29.70623 | 163 ft | 8 kts | 49° |
| 2026-04-20 03:37 | 30.90624 | 29.70626 | 161 ft | 7 kts | 338° |
| 2026-04-20 03:37 | 30.90734 | 29.70530 | 163 ft | 46 kts | 323° |
| 2026-04-20 03:37 | 30.91182 | 29.70137 | 165 ft | 115 kts | 322° |
| 2026-04-20 03:37 | 30.91970 | 29.69447 | 263 ft | 162 kts | 322° |
| 2026-04-20 03:38 | 30.92899 | 29.68662 | 972 ft | 160 kts | 320° |
| 2026-04-20 03:38 | 30.93800 | 29.67938 | 1690 ft | 163 kts | 333° |
| 2026-04-20 03:38 | 30.94945 | 29.67517 | 1877 ft | 186 kts | 353° |
| 2026-04-20 03:38 | 30.96310 | 29.67672 | 2089 ft | 212 kts | 9° |
| 2026-04-20 03:39 | 30.97785 | 29.68288 | 2255 ft | 238 kts | 21° |
| 2026-04-20 03:39 | 30.99174 | 29.69447 | 2647 ft | 258 kts | 50° |
| 2026-04-20 03:39 | 30.99868 | 29.71414 | 3224 ft | 268 kts | 72° |
| 2026-04-20 03:39 | 31.00392 | 29.73525 | 3806 ft | 273 kts | 67° |
| 2026-04-20 03:40 | 31.01063 | 29.75603 | 4537 ft | 275 kts | 64° |
| 2026-04-20 03:40 | 31.01790 | 29.77679 | 5249 ft | 278 kts | 64° |
| 2026-04-20 03:40 | 31.02542 | 29.79762 | 5864 ft | 279 kts | 60° |
| 2026-04-20 03:40 | 31.03699 | 29.81524 | 6302 ft | 272 kts | 33° |
| 2026-04-20 03:41 | 31.05232 | 29.82835 | 6782 ft | 277 kts | 32° |
| 2026-04-20 03:41 | 31.06779 | 29.84202 | 7402 ft | 280 kts | 33° |
| 2026-04-20 03:41 | 31.08329 | 29.85597 | 8049 ft | 283 kts | 33° |
| 2026-04-20 03:41 | 31.09891 | 29.87008 | 8686 ft | 286 kts | 33° |
| 2026-04-20 03:42 | 31.11472 | 29.88439 | 9292 ft | 289 kts | 33° |
| 2026-04-20 03:42 | 31.13072 | 29.89890 | 9911 ft | 293 kts | 33° |
| 2026-04-20 03:42 | 31.14701 | 29.91367 | 10327 ft | 304 kts | 33° |
| 2026-04-20 03:42 | 31.16438 | 29.92918 | 10463 ft | 321 kts | 30° |
| 2026-04-20 03:43 | 31.18502 | 29.93962 | 10585 ft | 331 kts | 5° |
| 2026-04-20 03:43 | 31.20795 | 29.93776 | 11012 ft | 335 kts | 340° |
| 2026-04-20 03:43 | 31.22911 | 29.92652 | 11561 ft | 337 kts | 329° |
| 2026-04-20 03:43 | 31.24996 | 29.91339 | 12322 ft | 343 kts | 329° |
| 2026-04-20 03:44 | 31.27095 | 29.90010 | 13363 ft | 344 kts | 328° |
| 2026-04-20 03:44 | 31.29204 | 29.88671 | 14320 ft | 346 kts | 328° |
| 2026-04-20 03:44 | 31.31333 | 29.87321 | 15141 ft | 350 kts | 328° |
| 2026-04-20 03:44 | 31.33489 | 29.85957 | 16007 ft | 354 kts | 328° |
| 2026-04-20 03:45 | 31.35667 | 29.84583 | 16876 ft | 357 kts | 328° |
| 2026-04-20 03:45 | 31.37868 | 29.83199 | 17774 ft | 361 kts | 328° |
| 2026-04-20 03:45 | 31.40097 | 29.81799 | 18594 ft | 365 kts | 328° |
| 2026-04-20 03:45 | 31.42315 | 29.80406 | 19361 ft | 368 kts | 328° |
| 2026-04-20 03:46 | 31.44584 | 29.78983 | 20143 ft | 372 kts | 328° |
| 2026-04-20 03:46 | 31.46873 | 29.77547 | 20927 ft | 375 kts | 328° |
| 2026-04-20 03:46 | 31.49186 | 29.76094 | 21674 ft | 379 kts | 328° |
| 2026-04-20 03:46 | 31.51523 | 29.74627 | 22446 ft | 383 kts | 327° |
| 2026-04-20 03:47 | 31.53880 | 29.73145 | 23213 ft | 387 kts | 328° |
| 2026-04-20 03:47 | 31.56262 | 29.71647 | 23878 ft | 390 kts | 327° |
| 2026-04-20 03:47 | 31.58668 | 29.70134 | 24491 ft | 394 kts | 327° |
| 2026-04-20 03:47 | 31.61093 | 29.68607 | 25073 ft | 397 kts | 327° |
| 2026-04-20 03:48 | 31.63538 | 29.67067 | 25638 ft | 401 kts | 327° |
| 2026-04-20 03:48 | 31.66004 | 29.65513 | 26180 ft | 404 kts | 327° |
| 2026-04-20 03:48 | 31.68492 | 29.63944 | 26700 ft | 408 kts | 327° |
| 2026-04-20 03:48 | 31.71001 | 29.62361 | 27221 ft | 411 kts | 327° |
| 2026-04-20 03:49 | 31.73527 | 29.60765 | 27712 ft | 414 kts | 327° |
| 2026-04-20 03:49 | 31.76078 | 29.59154 | 28194 ft | 417 kts | 327° |
| 2026-04-20 03:49 | 31.78643 | 29.57532 | 28655 ft | 421 kts | 326° |
| 2026-04-20 03:49 | 31.81229 | 29.55896 | 29105 ft | 424 kts | 326° |
| 2026-04-20 03:50 | 31.83832 | 29.54249 | 29596 ft | 426 kts | 327° |
| 2026-04-20 03:50 | 31.86445 | 29.52594 | 30028 ft | 428 kts | 327° |
| 2026-04-20 03:50 | 31.89074 | 29.50928 | 30370 ft | 431 kts | 327° |
| 2026-04-20 03:50 | 31.91723 | 29.49248 | 30657 ft | 434 kts | 327° |
| 2026-04-20 03:51 | 31.94388 | 29.47556 | 30932 ft | 437 kts | 327° |
| 2026-04-20 03:51 | 31.97070 | 29.45853 | 31202 ft | 439 kts | 327° |
| 2026-04-20 03:51 | 31.99769 | 29.44139 | 31455 ft | 442 kts | 327° |
| 2026-04-20 03:51 | 32.02479 | 29.42413 | 31717 ft | 444 kts | 327° |
| 2026-04-20 03:52 | 32.05202 | 29.40674 | 31952 ft | 446 kts | 326° |
| 2026-04-20 03:52 | 32.07938 | 29.38924 | 32204 ft | 448 kts | 326° |
| 2026-04-20 03:52 | 32.10674 | 29.37174 | 32539 ft | 448 kts | 326° |
| 2026-04-20 03:52 | 32.13411 | 29.35422 | 32877 ft | 447 kts | 327° |
| 2026-04-20 03:53 | 32.16145 | 29.33671 | 33201 ft | 447 kts | 327° |
| 2026-04-20 03:53 | 32.18877 | 29.31921 | 33537 ft | 447 kts | 327° |
| 2026-04-20 03:53 | 32.21610 | 29.30168 | 33864 ft | 447 kts | 326° |
| 2026-04-20 03:53 | 32.24341 | 29.28418 | 34161 ft | 447 kts | 326° |
| 2026-04-20 03:54 | 32.27073 | 29.26668 | 34438 ft | 447 kts | 326° |
| 2026-04-20 03:54 | 32.29809 | 29.24916 | 34716 ft | 447 kts | 326° |
| 2026-04-20 03:54 | 32.32537 | 29.23167 | 35003 ft | 446 kts | 326° |
| 2026-04-20 03:54 | 32.35271 | 29.21413 | 35282 ft | 446 kts | 326° |
| 2026-04-20 03:55 | 32.37994 | 29.19664 | 35577 ft | 446 kts | 326° |
| 2026-04-20 03:55 | 32.40721 | 29.17911 | 35850 ft | 446 kts | 326° |
| 2026-04-20 03:55 | 32.43445 | 29.16159 | 36127 ft | 446 kts | 326° |
| 2026-04-20 03:55 | 32.46168 | 29.14406 | 36402 ft | 445 kts | 326° |
| 2026-04-20 03:56 | 32.48888 | 29.12654 | 36672 ft | 445 kts | 326° |
| 2026-04-20 03:56 | 32.51607 | 29.10901 | 36933 ft | 445 kts | 326° |
| 2026-04-20 03:56 | 32.54325 | 29.09148 | 37200 ft | 445 kts | 326° |
| 2026-04-20 03:56 | 32.57042 | 29.07394 | 37448 ft | 445 kts | 326° |
| 2026-04-20 03:57 | 32.59722 | 29.05662 | 37705 ft | 444 kts | 326° |
| 2026-04-20 03:57 | 32.62439 | 29.03906 | 37948 ft | 444 kts | 326° |
| 2026-04-20 03:57 | 32.65149 | 29.02153 | 38191 ft | 444 kts | 325° |
| 2026-04-20 03:57 | 32.67862 | 29.00397 | 38457 ft | 444 kts | 326° |
| 2026-04-20 03:58 | 32.70568 | 28.98644 | 38722 ft | 443 kts | 325° |
| 2026-04-20 03:58 | 32.73272 | 28.96891 | 38897 ft | 443 kts | 325° |
| 2026-04-20 03:58 | 32.75977 | 28.95136 | 39045 ft | 444 kts | 326° |
| 2026-04-20 03:58 | 32.78684 | 28.93378 | 39217 ft | 444 kts | 326° |
| 2026-04-20 03:59 | 32.81392 | 28.91619 | 39367 ft | 444 kts | 326° |
| 2026-04-20 03:59 | 32.84103 | 28.89857 | 39508 ft | 444 kts | 326° |
| 2026-04-20 03:59 | 32.86816 | 28.88092 | 39665 ft | 445 kts | 326° |
| 2026-04-20 03:59 | 32.89532 | 28.86324 | 39812 ft | 445 kts | 326° |
| 2026-04-20 04:00 | 32.94978 | 28.82773 | 39940 ft | 448 kts | 326° |
| 2026-04-20 04:00 | 33.00444 | 28.79207 | 39984 ft | 447 kts | 326° |
| 2026-04-20 04:01 | 33.05880 | 28.75657 | 39987 ft | 445 kts | 326° |
| 2026-04-20 04:01 | 33.11295 | 28.72114 | 39988 ft | 443 kts | 325° |
| 2026-04-20 04:02 | 33.16700 | 28.68570 | 39986 ft | 443 kts | 325° |
| 2026-04-20 04:02 | 33.22100 | 28.65025 | 39990 ft | 443 kts | 326° |
| 2026-04-20 04:03 | 33.27501 | 28.61475 | 39994 ft | 443 kts | 326° |
| 2026-04-20 04:03 | 33.32904 | 28.57919 | 39987 ft | 443 kts | 326° |
| 2026-04-20 04:04 | 33.38309 | 28.54357 | 39989 ft | 444 kts | 326° |
| 2026-04-20 04:04 | 33.43712 | 28.50790 | 39989 ft | 444 kts | 326° |
| 2026-04-20 04:05 | 33.49117 | 28.47218 | 39989 ft | 444 kts | 326° |
| 2026-04-20 04:05 | 33.54522 | 28.43639 | 39999 ft | 444 kts | 326° |
| 2026-04-20 04:06 | 33.59931 | 28.40053 | 39992 ft | 444 kts | 326° |
| 2026-04-20 04:06 | 33.65336 | 28.36465 | 39993 ft | 444 kts | 326° |
| 2026-04-20 04:07 | 33.70738 | 28.32873 | 39983 ft | 444 kts | 326° |
| 2026-04-20 04:07 | 33.76137 | 28.29277 | 39988 ft | 443 kts | 326° |
| 2026-04-20 04:08 | 33.81471 | 28.25590 | 39984 ft | 441 kts | 322° |
| 2026-04-20 04:08 | 33.86590 | 28.21544 | 39986 ft | 440 kts | 322° |
| 2026-04-20 04:09 | 33.91677 | 28.17462 | 39982 ft | 439 kts | 322° |
| 2026-04-20 04:09 | 33.96768 | 28.13387 | 39983 ft | 439 kts | 322° |
| 2026-04-20 04:10 | 34.01866 | 28.09317 | 39986 ft | 439 kts | 322° |
| 2026-04-20 04:10 | 34.06932 | 28.05273 | 39989 ft | 440 kts | 322° |
| 2026-04-20 04:11 | 34.12030 | 28.01198 | 39999 ft | 440 kts | 322° |
| 2026-04-20 04:11 | 34.17132 | 27.97114 | 39986 ft | 440 kts | 322° |
| 2026-04-20 04:12 | 34.22232 | 27.93026 | 39986 ft | 440 kts | 322° |
| 2026-04-20 04:12 | 34.27330 | 27.88932 | 39984 ft | 440 kts | 322° |
| 2026-04-20 04:13 | 34.31597 | 27.85501 | 39986 ft | 440 kts | 322° |
| 2026-04-20 04:13 | 34.36688 | 27.81402 | 39986 ft | 439 kts | 322° |
| 2026-04-20 04:14 | 34.41778 | 27.77298 | 40000 ft | 440 kts | 322° |
| 2026-04-20 04:14 | 34.46866 | 27.73188 | 39989 ft | 440 kts | 322° |
| 2026-04-20 04:15 | 34.51951 | 27.69076 | 39991 ft | 439 kts | 322° |
| 2026-04-20 04:15 | 34.57034 | 27.64959 | 39991 ft | 439 kts | 322° |
| 2026-04-20 04:16 | 34.62112 | 27.60840 | 39987 ft | 439 kts | 322° |
| 2026-04-20 04:16 | 34.67186 | 27.56718 | 40008 ft | 439 kts | 322° |
| 2026-04-20 04:17 | 34.72267 | 27.52584 | 39995 ft | 439 kts | 322° |
| 2026-04-20 04:17 | 34.77342 | 27.48448 | 39991 ft | 439 kts | 322° |
| 2026-04-20 04:18 | 34.82417 | 27.44307 | 39997 ft | 439 kts | 322° |
| 2026-04-20 04:18 | 34.87487 | 27.40164 | 39992 ft | 439 kts | 322° |
| 2026-04-20 04:19 | 34.92550 | 27.36019 | 39991 ft | 439 kts | 322° |
| 2026-04-20 04:19 | 34.97622 | 27.31861 | 40005 ft | 439 kts | 322° |
| 2026-04-20 04:20 | 35.02690 | 27.27700 | 39998 ft | 439 kts | 322° |
| 2026-04-20 04:20 | 35.07722 | 27.23563 | 39991 ft | 439 kts | 322° |
| 2026-04-20 04:21 | 35.12783 | 27.19395 | 39994 ft | 439 kts | 322° |
| 2026-04-20 04:21 | 35.17861 | 27.15207 | 39990 ft | 439 kts | 322° |
| 2026-04-20 04:22 | 35.22920 | 27.11027 | 39996 ft | 439 kts | 322° |
| 2026-04-20 04:22 | 35.27982 | 27.06840 | 39995 ft | 439 kts | 322° |
| 2026-04-20 04:23 | 35.33041 | 27.02648 | 39995 ft | 439 kts | 322° |
| 2026-04-20 04:23 | 35.38104 | 26.98447 | 39996 ft | 440 kts | 322° |
| 2026-04-20 04:24 | 35.43169 | 26.94237 | 40002 ft | 440 kts | 322° |
| 2026-04-20 04:24 | 35.48234 | 26.90020 | 39997 ft | 440 kts | 322° |
| 2026-04-20 04:25 | 35.53298 | 26.85799 | 40019 ft | 440 kts | 322° |
| 2026-04-20 04:25 | 35.58368 | 26.81565 | 40012 ft | 441 kts | 322° |
| 2026-04-20 04:26 | 35.63404 | 26.77354 | 40007 ft | 441 kts | 322° |
| 2026-04-20 04:26 | 35.68472 | 26.73109 | 40011 ft | 441 kts | 322° |
| 2026-04-20 04:27 | 35.73543 | 26.68855 | 40010 ft | 441 kts | 322° |
| 2026-04-20 04:27 | 35.78609 | 26.64599 | 40010 ft | 441 kts | 322° |
| 2026-04-20 04:28 | 35.83675 | 26.60335 | 40027 ft | 441 kts | 322° |
| 2026-04-20 04:28 | 35.88742 | 26.56064 | 40014 ft | 441 kts | 322° |
| 2026-04-20 04:29 | 35.93809 | 26.51786 | 40014 ft | 441 kts | 322° |
| 2026-04-20 04:29 | 35.98870 | 26.47507 | 40024 ft | 441 kts | 322° |
| 2026-04-20 04:30 | 36.03929 | 26.43223 | 40027 ft | 441 kts | 322° |
| 2026-04-20 04:30 | 36.08981 | 26.38938 | 40027 ft | 441 kts | 322° |
| 2026-04-20 04:31 | 36.14045 | 26.34634 | 40033 ft | 441 kts | 322° |
| 2026-04-20 04:31 | 36.19108 | 26.30327 | 40032 ft | 442 kts | 322° |
| 2026-04-20 04:32 | 36.24170 | 26.26012 | 40031 ft | 442 kts | 322° |
| 2026-04-20 04:32 | 36.29235 | 26.21689 | 40038 ft | 442 kts | 322° |
| 2026-04-20 04:33 | 36.34300 | 26.17358 | 40048 ft | 442 kts | 322° |
| 2026-04-20 04:33 | 36.39369 | 26.13016 | 40052 ft | 443 kts | 322° |
| 2026-04-20 04:34 | 36.44444 | 26.08663 | 40046 ft | 444 kts | 322° |
| 2026-04-20 04:34 | 36.49521 | 26.04301 | 40043 ft | 444 kts | 322° |
| 2026-04-20 04:35 | 36.54602 | 25.99928 | 40046 ft | 444 kts | 322° |
| 2026-04-20 04:35 | 36.59681 | 25.95551 | 40047 ft | 444 kts | 322° |
| 2026-04-20 04:36 | 36.67300 | 25.88969 | 40056 ft | 445 kts | 322° |
| 2026-04-20 04:37 | 36.72382 | 25.84570 | 40051 ft | 445 kts | 322° |
| 2026-04-20 04:37 | 36.77429 | 25.80195 | 40043 ft | 445 kts | 322° |
| 2026-04-20 04:38 | 36.82511 | 25.75781 | 39813 ft | 449 kts | 322° |
| 2026-04-20 04:38 | 36.85085 | 25.73541 | 39216 ft | 453 kts | 322° |
| 2026-04-20 04:38 | 36.87671 | 25.71291 | 38609 ft | 451 kts | 322° |
| 2026-04-20 04:38 | 36.90245 | 25.69050 | 37857 ft | 451 kts | 322° |
| 2026-04-20 04:39 | 36.92814 | 25.66812 | 37185 ft | 449 kts | 322° |
| 2026-04-20 04:39 | 36.95369 | 25.64584 | 36642 ft | 445 kts | 322° |
| 2026-04-20 04:39 | 36.97895 | 25.62381 | 36183 ft | 441 kts | 322° |
| 2026-04-20 04:39 | 37.00395 | 25.60197 | 35704 ft | 436 kts | 322° |
| 2026-04-20 04:40 | 37.02872 | 25.58031 | 35228 ft | 433 kts | 322° |
| 2026-04-20 04:40 | 37.05330 | 25.55879 | 34778 ft | 430 kts | 322° |
| 2026-04-20 04:40 | 37.07770 | 25.53740 | 34296 ft | 427 kts | 322° |
| 2026-04-20 04:40 | 37.10195 | 25.51614 | 33799 ft | 424 kts | 322° |
| 2026-04-20 04:41 | 37.12604 | 25.49500 | 33277 ft | 421 kts | 322° |
| 2026-04-20 04:41 | 37.14991 | 25.47403 | 32786 ft | 418 kts | 322° |
| 2026-04-20 04:41 | 37.17365 | 25.45316 | 32298 ft | 415 kts | 322° |
| 2026-04-20 04:41 | 37.19716 | 25.43248 | 31842 ft | 411 kts | 322° |
| 2026-04-20 04:42 | 37.22050 | 25.41194 | 31366 ft | 408 kts | 323° |
| 2026-04-20 04:42 | 37.24357 | 25.39141 | 30888 ft | 403 kts | 320° |
| 2026-04-20 04:42 | 37.26357 | 25.36735 | 30427 ft | 397 kts | 308° |
| 2026-04-20 04:42 | 37.27943 | 25.33920 | 29953 ft | 394 kts | 301° |
| 2026-04-20 04:43 | 37.29156 | 25.30849 | 29409 ft | 390 kts | 290° |
| 2026-04-20 04:43 | 37.30010 | 25.27638 | 28918 ft | 385 kts | 289° |
| 2026-04-20 04:43 | 37.30829 | 25.24457 | 28424 ft | 381 kts | 289° |
| 2026-04-20 04:43 | 37.31645 | 25.21311 | 27946 ft | 377 kts | 289° |
| 2026-04-20 04:44 | 37.32464 | 25.18194 | 27464 ft | 374 kts | 289° |
| 2026-04-20 04:44 | 37.33281 | 25.15113 | 26994 ft | 370 kts | 289° |
| 2026-04-20 04:44 | 37.34095 | 25.12053 | 26528 ft | 368 kts | 289° |
| 2026-04-20 04:44 | 37.34904 | 25.09022 | 26068 ft | 365 kts | 289° |
| 2026-04-20 04:45 | 37.35710 | 25.05998 | 25582 ft | 363 kts | 289° |
| 2026-04-20 04:45 | 37.36508 | 25.02999 | 25141 ft | 361 kts | 290° |
| 2026-04-20 04:45 | 37.37302 | 25.00012 | 24680 ft | 359 kts | 290° |
| 2026-04-20 04:45 | 37.38092 | 24.97042 | 24240 ft | 357 kts | 290° |
| 2026-04-20 04:46 | 37.38866 | 24.94129 | 23802 ft | 355 kts | 290° |
| 2026-04-20 04:46 | 37.39645 | 24.91194 | 23317 ft | 353 kts | 290° |
| 2026-04-20 04:46 | 37.40421 | 24.88269 | 22834 ft | 351 kts | 290° |
| 2026-04-20 04:46 | 37.41188 | 24.85371 | 22427 ft | 347 kts | 290° |
| 2026-04-20 04:47 | 37.41947 | 24.82503 | 21989 ft | 344 kts | 290° |
| 2026-04-20 04:47 | 37.42700 | 24.79652 | 21565 ft | 342 kts | 290° |
| 2026-04-20 04:47 | 37.43447 | 24.76823 | 21147 ft | 339 kts | 290° |
| 2026-04-20 04:47 | 37.44187 | 24.74017 | 20741 ft | 337 kts | 290° |
| 2026-04-20 04:48 | 37.44921 | 24.71227 | 20328 ft | 335 kts | 289° |
| 2026-04-20 04:48 | 37.45651 | 24.68452 | 19919 ft | 333 kts | 289° |
| 2026-04-20 04:48 | 37.46375 | 24.65696 | 19522 ft | 331 kts | 289° |
| 2026-04-20 04:48 | 37.47096 | 24.62952 | 19120 ft | 329 kts | 289° |
| 2026-04-20 04:49 | 37.47812 | 24.60220 | 18727 ft | 328 kts | 289° |
| 2026-04-20 04:49 | 37.48525 | 24.57499 | 18324 ft | 327 kts | 289° |
| 2026-04-20 04:49 | 37.49233 | 24.54789 | 17872 ft | 325 kts | 289° |
| 2026-04-20 04:49 | 37.49938 | 24.52092 | 17440 ft | 323 kts | 289° |
| 2026-04-20 04:50 | 37.50639 | 24.49407 | 17041 ft | 321 kts | 289° |
| 2026-04-20 04:50 | 37.51332 | 24.46748 | 16643 ft | 319 kts | 289° |
| 2026-04-20 04:50 | 37.52022 | 24.44101 | 16249 ft | 317 kts | 289° |
| 2026-04-20 04:50 | 37.52705 | 24.41476 | 15859 ft | 315 kts | 289° |
| 2026-04-20 04:51 | 37.53384 | 24.38863 | 15469 ft | 313 kts | 289° |
| 2026-04-20 04:51 | 37.54059 | 24.36267 | 15082 ft | 311 kts | 289° |
| 2026-04-20 04:51 | 37.54728 | 24.33689 | 14706 ft | 309 kts | 289° |
| 2026-04-20 04:51 | 37.55391 | 24.31123 | 14319 ft | 306 kts | 288° |
| 2026-04-20 04:52 | 37.55742 | 24.28507 | 13942 ft | 309 kts | 271° |
| 2026-04-20 04:52 | 37.55575 | 24.25746 | 13544 ft | 320 kts | 267° |
| 2026-04-20 04:52 | 37.55411 | 24.22928 | 13111 ft | 323 kts | 268° |
| 2026-04-20 04:52 | 37.55278 | 24.20119 | 12693 ft | 320 kts | 269° |
| 2026-04-20 04:53 | 37.55152 | 24.17331 | 12291 ft | 317 kts | 269° |
| 2026-04-20 04:53 | 37.55027 | 24.14570 | 11897 ft | 315 kts | 269° |
| 2026-04-20 04:53 | 37.54903 | 24.11828 | 11512 ft | 312 kts | 269° |
| 2026-04-20 04:53 | 37.54778 | 24.09097 | 11123 ft | 311 kts | 269° |
| 2026-04-20 04:54 | 37.54652 | 24.06379 | 10734 ft | 311 kts | 268° |
| 2026-04-20 04:54 | 37.54527 | 24.03669 | 10443 ft | 306 kts | 268° |
| 2026-04-20 04:54 | 37.54404 | 24.01039 | 10305 ft | 296 kts | 268° |
| 2026-04-20 04:54 | 37.54284 | 23.98495 | 10169 ft | 286 kts | 268° |
| 2026-04-20 04:55 | 37.54167 | 23.96026 | 9962 ft | 280 kts | 268° |
| 2026-04-20 04:55 | 37.54052 | 23.93579 | 9601 ft | 279 kts | 268° |
| 2026-04-20 04:55 | 37.53937 | 23.91148 | 9265 ft | 277 kts | 268° |
| 2026-04-20 04:55 | 37.53823 | 23.88763 | 8939 ft | 275 kts | 268° |
| 2026-04-20 04:56 | 37.53708 | 23.86366 | 8616 ft | 273 kts | 268° |
| 2026-04-20 04:56 | 37.53631 | 23.84755 | 8401 ft | 272 kts | 268° |
| 2026-04-20 04:56 | 37.53479 | 23.81615 | 7977 ft | 270 kts | 268° |
| 2026-04-20 04:56 | 37.53365 | 23.79260 | 7665 ft | 268 kts | 269° |
| 2026-04-20 04:57 | 37.53564 | 23.76993 | 7342 ft | 260 kts | 294° |
| 2026-04-20 04:57 | 37.54600 | 23.75176 | 7064 ft | 257 kts | 322° |
| 2026-04-20 04:57 | 37.55622 | 23.74373 | 6865 ft | 257 kts | 336° |
| 2026-04-20 04:57 | 37.57337 | 23.73798 | 6565 ft | 256 kts | 353° |
| 2026-04-20 04:58 | 37.59704 | 23.73607 | 6144 ft | 259 kts | 357° |
| 2026-04-20 04:58 | 37.60921 | 23.73534 | 5939 ft | 260 kts | 357° |
| 2026-04-20 04:58 | 37.62729 | 23.73433 | 5616 ft | 260 kts | 356° |
| 2026-04-20 04:58 | 37.64526 | 23.73316 | 5308 ft | 258 kts | 356° |
| 2026-04-20 04:59 | 37.66306 | 23.73187 | 5008 ft | 255 kts | 356° |
| 2026-04-20 04:59 | 37.68072 | 23.73053 | 4703 ft | 253 kts | 356° |
| 2026-04-20 04:59 | 37.69815 | 23.72918 | 4518 ft | 246 kts | 356° |
| 2026-04-20 04:59 | 37.71473 | 23.72927 | 4371 ft | 232 kts | 12° |
| 2026-04-20 05:00 | 37.72877 | 23.73767 | 4273 ft | 217 kts | 32° |
| 2026-04-20 05:00 | 37.74091 | 23.74804 | 4188 ft | 205 kts | 33° |
| 2026-04-20 05:00 | 37.75206 | 23.75809 | 4117 ft | 195 kts | 34° |
| 2026-04-20 05:00 | 37.76312 | 23.76843 | 3975 ft | 198 kts | 35° |
| 2026-04-20 05:01 | 37.77395 | 23.77866 | 3752 ft | 196 kts | 36° |
| 2026-04-20 05:01 | 37.78475 | 23.78891 | 3514 ft | 193 kts | 36° |
| 2026-04-20 05:01 | 37.79534 | 23.79896 | 3316 ft | 188 kts | 36° |
| 2026-04-20 05:01 | 37.80591 | 23.80900 | 3084 ft | 192 kts | 36° |
| 2026-04-20 05:02 | 37.81667 | 23.81922 | 2838 ft | 193 kts | 36° |
| 2026-04-20 05:02 | 37.82728 | 23.82931 | 2570 ft | 189 kts | 36° |
| 2026-04-20 05:02 | 37.83763 | 23.83914 | 2335 ft | 182 kts | 36° |
| 2026-04-20 05:02 | 37.84751 | 23.84852 | 2081 ft | 175 kts | 36° |
| 2026-04-20 05:03 | 37.85687 | 23.85742 | 1958 ft | 166 kts | 36° |
| 2026-04-20 05:03 | 37.86581 | 23.86592 | 1721 ft | 154 kts | 36° |
| 2026-04-20 05:03 | 37.87403 | 23.87373 | 1540 ft | 144 kts | 36° |
| 2026-04-20 05:03 | 37.88210 | 23.88141 | 1353 ft | 145 kts | 36° |
| 2026-04-20 05:04 | 37.89007 | 23.88898 | 1121 ft | 142 kts | 36° |
| 2026-04-20 05:04 | 37.89787 | 23.89643 | 950 ft | 141 kts | 36° |
| 2026-04-20 05:04 | 37.90575 | 23.90391 | 752 ft | 141 kts | 36° |
| 2026-04-20 05:04 | 37.91355 | 23.91134 | 582 ft | 139 kts | 36° |
| 2026-04-20 05:05 | 37.92132 | 23.91871 | 401 ft | 140 kts | 37° |
| 2026-04-20 05:05 | 37.92896 | 23.92604 | 304 ft | 130 kts | 37° |
| 2026-04-20 05:05 | 37.93516 | 23.93191 | 299 ft | 89 kts | 37° |
| 2026-04-20 05:05 | 37.93850 | 23.93524 | 301 ft | 41 kts | 51° |
| 2026-04-20 05:06 | 37.93947 | 23.93748 | 303 ft | 14 kts | 76° |
| 2026-04-20 05:06 | 37.93889 | 23.93810 | 306 ft | 14 kts | 196° |
| 2026-04-20 05:06 | 37.93809 | 23.93746 | 306 ft | 14 kts | 217° |
| 2026-04-20 05:06 | 37.93733 | 23.93673 | 307 ft | 14 kts | 217° |
| 2026-04-20 05:07 | 37.93658 | 23.93601 | 304 ft | 14 kts | 217° |
| 2026-04-20 05:07 | 37.93582 | 23.93529 | 307 ft | 14 kts | 217° |
| 2026-04-20 05:07 | 37.93506 | 23.93457 | 307 ft | 14 kts | 217° |
| 2026-04-20 05:07 | 37.93423 | 23.93456 | 306 ft | 14 kts | 136° |
| 2026-04-20 05:08 | 37.93364 | 23.93550 | 309 ft | 14 kts | 128° |
| 2026-04-20 05:08 | 37.93306 | 23.93646 | 307 ft | 14 kts | 127° |
| 2026-04-20 05:08 | 37.93245 | 23.93750 | 307 ft | 16 kts | 127° |
| 2026-04-20 05:08 | 37.93174 | 23.93870 | 306 ft | 18 kts | 127° |
| 2026-04-20 05:09 | 37.93094 | 23.94002 | 307 ft | 20 kts | 127° |
| 2026-04-20 05:09 | 37.93010 | 23.94142 | 306 ft | 20 kts | 127° |
| 2026-04-20 05:09 | 37.92923 | 23.94287 | 310 ft | 21 kts | 127° |
| 2026-04-20 05:09 | 37.92887 | 23.94397 | 306 ft | 14 kts | 69° |
| 2026-04-20 05:10 | 37.92963 | 23.94484 | 306 ft | 16 kts | 37° |
| 2026-04-20 05:10 | 37.93054 | 23.94570 | 309 ft | 15 kts | 33° |
| 2026-04-20 05:10 | 37.93149 | 23.94593 | 309 ft | 11 kts | 2° |
| 2026-04-20 05:10 | 37.93220 | 23.94603 | 308 ft | 7 kts | 18° |
| 2026-04-20 05:11 | 37.93263 | 23.94577 | 305 ft | 7 kts | 310° |
| 2026-04-20 05:11 | 37.93281 | 23.94549 | 308 ft | 3 kts | 308° |
| 2026-04-20 05:11 | 37.93286 | 23.94539 | 307 ft | 0 kts | 307° |